Time;durP1;ratioP1;P1;durP2;ratioP2;P2;SDS_P1;SDS_P2;PMS_P1;PMS_P2;Temp;Humidity;BMP_temperature;BMP_pressure;BME280_temperature;BME280_humidity;BME280_pressure;Samples;Min_cycle;Max_cycle;Signal;HPM_P1;HPM_P2
2024/02/10 00:01:48;;;;;;;13.35;6.55;;;9.20;99.90;;;;;;5053776;28;20025;-69
2024/02/10 00:04:16;;;;;;;9.55;5.97;;;9.20;99.90;;;;;;5071708;28;20474;-69
2024/02/10 00:06:42;;;;;;;18.08;7.20;;;9.20;99.90;;;;;;5071680;28;20126;-68
2024/02/10 00:09:08;;;;;;;;;;;9.20;99.90;;;;;;5071261;28;20072;-69
2024/02/10 00:11:38;;;;;;;13.35;7.35;;;9.20;99.90;;;;;;5071626;28;19908;-70
2024/02/10 00:14:16;;;;;;;17.48;8.00;;;9.30;99.90;;;;;;5071578;28;20110;-69
2024/02/10 00:16:44;;;;;;;20.10;8.55;;;9.20;99.90;;;;;;5053564;28;20048;-70
2024/02/10 00:19:10;;;;;;;13.07;6.03;;;9.20;99.90;;;;;;5053619;28;20032;-69
2024/02/10 00:21:36;;;;;;;;;;;9.10;99.90;;;;;;5053120;28;20027;-69
2024/02/10 00:24:02;;;;;;;16.50;6.68;;;9.10;99.90;;;;;;5071152;28;19916;-69
2024/02/10 00:26:28;;;;;;;17.35;7.47;;;9.10;99.90;;;;;;5053311;28;20028;-69
2024/02/10 00:28:55;;;;;;;;;;;9.00;99.90;;;;;;5053619;28;20044;-69
2024/02/10 00:31:24;;;;;;;14.82;7.55;;;9.00;99.90;;;;;;5071293;28;20003;-67
2024/02/10 00:33:50;;;;;;;22.90;7.10;;;9.00;99.90;;;;;;5069357;28;20389;-69
2024/02/10 00:36:16;;;;;;;13.43;7.13;;;9.10;99.90;;;;;;5053169;28;20024;-69
2024/02/10 00:38:42;;;;;;;18.27;7.05;;;9.10;99.90;;;;;;5053237;28;20654;-69
2024/02/10 00:41:09;;;;;;;;;;;9.10;99.90;;;;;;5073968;28;20576;-70
2024/02/10 00:43:42;;;;;;;;;;;9.00;99.90;;;;;;5075732;28;19911;-70
2024/02/10 00:46:17;;;;;;;18.75;8.70;;;8.90;99.90;;;;;;5073305;28;19977;-68
2024/02/10 00:48:47;;;;;;;14.98;8.13;;;8.90;99.90;;;;;;5053071;28;20044;-70
2024/02/10 00:51:13;;;;;;;15.00;7.53;;;8.80;99.90;;;;;;5070974;28;20112;-68
2024/02/10 00:53:39;;;;;;;17.95;7.38;;;8.90;99.90;;;;;;5070837;28;20043;-68
2024/02/10 00:56:08;;;;;;;;;;;8.90;99.90;;;;;;5052801;28;20028;-69
2024/02/10 00:58:35;;;;;;;18.02;8.10;;;9.00;99.90;;;;;;5069955;28;19913;-69
2024/02/10 01:01:00;;;;;;;16.42;9.70;;;8.90;99.90;;;;;;5052369;28;20082;-69
2024/02/10 01:03:26;;;;;;;;;;;8.90;99.90;;;;;;5053071;28;20488;-69
2024/02/10 01:05:52;;;;;;;12.45;7.70;;;8.90;99.90;;;;;;5070699;28;20324;-68
2024/02/10 01:08:17;;;;;;;;;;;8.90;99.90;;;;;;5070920;28;20032;-69
2024/02/10 01:10:44;;;;;;;15.32;7.28;;;8.90;99.90;;;;;;5070542;28;19915;-70
2024/02/10 01:13:10;;;;;;;19.52;7.43;;;8.90;99.90;;;;;;5070483;28;20056;-69
2024/02/10 01:15:35;;;;;;;;;;;8.90;99.90;;;;;;5070843;28;20063;-67
2024/02/10 01:18:01;;;;;;;10.82;6.30;;;8.90;99.90;;;;;;5070346;28;19908;-69
2024/02/10 01:20:27;;;;;;;;;;;8.90;99.90;;;;;;5052855;28;20028;-67
2024/02/10 01:22:56;;;;;;;20.70;5.97;;;8.80;99.90;;;;;;5070118;28;19938;-70
2024/02/10 01:25:21;;;;;;;12.95;6.65;;;8.80;99.90;;;;;;5052097;28;20437;-69
2024/02/10 01:27:47;;;;;;;;;;;8.90;99.90;;;;;;5070434;28;20044;-69
2024/02/10 01:30:13;;;;;;;17.17;7.35;;;8.90;99.90;;;;;;5070104;28;19934;-69
2024/02/10 01:32:38;;;;;;;;;;;9.00;99.90;;;;;;5070450;28;20021;-69
2024/02/10 01:35:04;;;;;;;17.80;7.45;;;8.90;99.90;;;;;;5070004;28;19908;-68
2024/02/10 01:37:30;;;;;;;15.52;6.72;;;8.90;99.90;;;;;;5069964;28;20067;-68
2024/02/10 01:39:56;;;;;;;;;;;8.90;99.90;;;;;;5070337;28;20063;-69
2024/02/10 01:42:44;;;;;;;16.27;6.32;;;9.00;99.90;;;;;;5069202;28;19908;-69
2024/02/10 01:45:14;;;;;;;14.32;5.93;;;9.00;99.90;;;;;;5068686;28;20041;-68
2024/02/10 01:47:42;;;;;;;19.55;7.47;;;9.00;99.90;;;;;;5069798;28;20560;-69
2024/02/10 01:50:09;;;;;;;18.20;6.93;;;9.00;99.90;;;;;;5069845;28;20066;-68
2024/02/10 01:52:38;;;;;;;16.77;6.07;;;9.00;99.90;;;;;;5069710;28;20542;-69
2024/02/10 01:55:09;;;;;;;17.40;7.53;;;9.00;99.90;;;;;;5069717;28;20552;-69
2024/02/10 01:57:35;;;;;;;19.70;7.38;;;9.00;99.90;;;;;;5069479;28;20059;-69
2024/02/10 02:00:05;;;;;;;14.52;6.68;;;9.00;99.90;;;;;;5067552;28;20032;-69
2024/02/10 02:02:32;;;;;;;14.55;6.63;;;9.10;99.90;;;;;;5048646;28;20025;-69
2024/02/10 02:04:59;;;;;;;17.75;6.43;;;9.00;99.90;;;;;;5069534;28;20036;-70
2024/02/10 02:07:30;;;;;;;15.07;7.05;;;9.00;99.90;;;;;;5069297;28;20895;-69
2024/02/10 02:09:59;;;;;;;10.52;6.00;;;9.10;99.90;;;;;;5067731;28;20461;-70
2024/02/10 02:12:25;;;;;;;14.95;7.07;;;9.00;99.90;;;;;;5067472;28;20412;-69
2024/02/10 02:14:51;;;;;;;;;;;9.20;99.90;;;;;;5069683;28;20112;-69
2024/02/10 02:17:17;;;;;;;11.05;5.45;;;9.10;99.90;;;;;;5069104;28;19999;-68
2024/02/10 02:19:44;;;;;;;16.65;6.35;;;9.10;99.90;;;;;;5069024;28;20024;-69
2024/02/10 02:22:10;;;;;;;20.33;6.00;;;9.20;99.90;;;;;;5068971;28;20079;-68
2024/02/10 02:24:35;;;;;;;;;;;9.20;99.90;;;;;;5069555;28;20588;-69
2024/02/10 02:27:02;;;;;;;14.70;5.78;;;9.20;99.90;;;;;;5068860;28;19981;-69
2024/02/10 02:29:28;;;;;;;11.13;5.75;;;9.10;99.90;;;;;;5069047;28;20031;-69
2024/02/10 02:31:58;;;;;;;11.82;5.80;;;9.10;99.90;;;;;;5069056;28;20103;-69
2024/02/10 02:34:25;;;;;;;15.55;6.78;;;9.10;99.90;;;;;;5068805;28;20025;-69
2024/02/10 02:36:52;;;;;;;16.48;7.28;;;9.10;99.90;;;;;;5069021;28;20047;-68
2024/02/10 02:39:19;;;;;;;16.92;6.60;;;9.20;99.90;;;;;;5068823;28;20135;-69
2024/02/10 02:41:44;;;;;;;9.68;5.88;;;9.10;99.90;;;;;;5068903;28;20515;-67
2024/02/10 02:44:14;;;;;;;;;;;9.20;99.90;;;;;;5063115;28;20037;-69
2024/02/10 02:46:41;;;;;;;17.85;6.07;;;9.10;99.90;;;;;;5050574;28;19991;-69
2024/02/10 02:49:07;;;;;;;13.35;5.43;;;9.00;99.90;;;;;;5048745;28;20391;-69
2024/02/10 02:51:32;;;;;;;;;;;9.00;99.90;;;;;;5049302;28;20031;-68
2024/02/10 02:53:59;;;;;;;17.15;7.50;;;9.00;99.90;;;;;;5048909;28;19909;-69
2024/02/10 02:56:25;;;;;;;18.13;6.90;;;9.00;99.90;;;;;;5048682;28;20112;-68
2024/02/10 02:58:54;;;;;;;12.57;6.93;;;9.00;99.90;;;;;;5061949;28;20029;-69
2024/02/10 03:01:22;;;;;;;17.13;6.38;;;9.00;99.90;;;;;;5068547;28;20031;-69
2024/02/10 03:03:50;;;;;;;15.20;7.45;;;9.10;99.90;;;;;;5048862;28;20115;-69
2024/02/10 03:06:20;;;;;;;15.02;6.32;;;9.10;99.90;;;;;;5068534;28;20028;-69
2024/02/10 03:08:47;;;;;;;16.70;6.80;;;9.10;99.90;;;;;;5068523;28;20094;-69
2024/02/10 03:11:19;;;;;;;14.70;7.35;;;9.10;99.90;;;;;;5068518;28;20029;-69
2024/02/10 03:13:48;;;;;;;13.55;6.10;;;9.10;99.90;;;;;;5068904;28;20041;-69
2024/02/10 03:16:14;;;;;;;16.27;7.40;;;9.00;99.90;;;;;;5051003;28;20519;-68
2024/02/10 03:18:50;;;;;;;15.10;7.53;;;9.10;99.90;;;;;;5069102;28;20070;-70
2024/02/10 03:21:21;;;;;;;11.50;5.30;;;9.10;99.90;;;;;;5050657;28;20496;-69
2024/02/10 03:23:46;;;;;;;14.27;6.28;;;9.00;99.90;;;;;;5035255;28;20052;-68
2024/02/10 03:26:12;;;;;;;;;;;9.00;99.90;;;;;;5027791;28;20033;-69
2024/02/10 03:28:38;;;;;;;15.35;5.95;;;9.00;99.90;;;;;;5029559;28;20397;-71
2024/02/10 03:31:05;;;;;;;13.00;5.05;;;9.00;99.90;;;;;;5031579;28;20034;-70
2024/02/10 03:33:32;;;;;;;17.75;7.75;;;9.00;99.90;;;;;;5029948;28;20076;-69
2024/02/10 03:35:58;;;;;;;18.73;8.32;;;9.00;99.90;;;;;;5028540;28;20093;-69
2024/02/10 03:38:24;;;;;;;23.10;8.63;;;9.10;99.90;;;;;;5028335;28;20075;-69
2024/02/10 03:40:50;;;;;;;;;;;9.20;99.90;;;;;;5028471;28;20506;-69
2024/02/10 03:43:22;;;;;;;14.90;6.85;;;9.20;99.90;;;;;;5028395;28;19909;-68
2024/02/10 03:45:47;;;;;;;18.55;7.13;;;9.10;99.90;;;;;;5028270;28;20502;-69
2024/02/10 03:48:14;;;;;;;;;;;9.10;99.90;;;;;;5028568;28;20067;-69
2024/02/10 03:50:40;;;;;;;14.02;5.38;;;9.10;99.90;;;;;;5028268;28;19916;-69
2024/02/10 03:53:05;;;;;;;;;;;9.10;99.90;;;;;;5028722;28;20516;-69
2024/02/10 03:55:31;;;;;;;11.48;5.28;;;9.10;99.90;;;;;;5028254;28;20630;-69
2024/02/10 03:57:58;;;;;;;;;;;9.20;99.90;;;;;;5028633;28;20044;-68
2024/02/10 04:00:24;;;;;;;;;;;9.10;99.90;;;;;;5028602;28;19952;-69
2024/02/10 04:02:50;;;;;;;10.50;4.72;;;9.20;99.90;;;;;;5028330;28;19909;-69
2024/02/10 04:05:16;;;;;;;;;;;9.20;99.90;;;;;;5028657;28;20037;-69
2024/02/10 04:07:49;;;;;;;15.57;5.72;;;9.20;99.90;;;;;;5027985;28;19920;-69
2024/02/10 04:10:17;;;;;;;15.20;6.03;;;9.20;99.90;;;;;;5029875;28;20037;-69
2024/02/10 04:12:43;;;;;;;13.07;5.10;;;9.20;99.90;;;;;;5031859;28;20036;-69
2024/02/10 04:15:11;;;;;;;;;;;9.30;99.90;;;;;;5032095;28;20108;-70
2024/02/10 04:17:49;;;;;;;19.58;9.65;;;9.20;99.90;;;;;;5030313;28;19909;-69
2024/02/10 04:20:19;;;;;;;17.73;5.75;;;9.20;99.90;;;;;;5030268;28;20025;-69
2024/02/10 04:22:45;;;;;;;11.75;4.82;;;9.20;99.90;;;;;;5038528;28;20060;-69
2024/02/10 04:25:12;;;;;;;;;;;9.20;99.90;;;;;;5071852;28;20439;-69
2024/02/10 04:27:46;;;;;;;15.57;5.30;;;9.10;99.90;;;;;;5071140;28;19931;-70
2024/02/10 04:30:13;;;;;;;11.07;4.82;;;9.10;99.90;;;;;;5071213;28;20036;-69
2024/02/10 04:32:42;;;;;;;8.75;4.63;;;9.10;99.90;;;;;;5071138;28;20020;-69
2024/02/10 04:35:11;;;;;;;19.27;6.85;;;9.00;99.90;;;;;;5071268;28;20036;-68
2024/02/10 04:37:37;;;;;;;13.95;5.35;;;9.00;99.90;;;;;;5052941;28;20035;-68
2024/02/10 04:40:03;;;;;;;;;;;9.00;99.90;;;;;;5071547;28;20020;-69
2024/02/10 04:42:29;;;;;;;12.20;4.90;;;8.90;99.90;;;;;;5070865;28;20007;-69
2024/02/10 04:44:58;;;;;;;;;;;8.90;99.90;;;;;;5071541;28;20103;-69
2024/02/10 04:47:24;;;;;;;11.02;5.03;;;8.90;99.90;;;;;;5071032;28;19955;-69
2024/02/10 04:49:50;;;;;;;;;;;8.90;99.90;;;;;;5053448;28;20031;-69
2024/02/10 04:52:18;;;;;;;11.68;5.93;;;8.90;99.90;;;;;;5070835;28;19908;-69
2024/02/10 04:54:44;;;;;;;10.18;4.35;;;8.90;99.90;;;;;;5052756;28;20029;-69
2024/02/10 04:57:10;;;;;;;14.18;5.10;;;8.90;99.90;;;;;;5053003;28;20025;-69
2024/02/10 04:59:38;;;;;;;;;;;9.00;99.90;;;;;;5071193;28;20033;-69
2024/02/10 05:02:04;;;;;;;13.90;5.20;;;8.90;99.90;;;;;;5070570;28;19909;-70
2024/02/10 05:04:30;;;;;;;;;;;8.90;99.90;;;;;;5071106;28;20044;-69
2024/02/10 05:06:56;;;;;;;13.77;4.75;;;8.90;99.90;;;;;;5070539;28;20296;-69
2024/02/10 05:09:22;;;;;;;;;;;8.90;99.90;;;;;;5071009;28;20472;-69
2024/02/10 05:11:48;;;;;;;13.53;4.80;;;9.00;99.90;;;;;;5052534;28;20380;-69
2024/02/10 05:14:13;;;;;;;;;;;9.00;99.90;;;;;;5052735;28;20259;-66
2024/02/10 05:16:39;;;;;;;11.93;4.68;;;9.00;99.90;;;;;;5070114;28;19909;-68
2024/02/10 05:19:05;;;;;;;;;;;9.10;99.90;;;;;;5070777;28;20055;-70
2024/02/10 05:21:33;;;;;;;16.55;4.53;;;9.00;99.90;;;;;;5069351;28;19908;-69
2024/02/10 05:24:14;;;;;;;13.45;5.88;;;8.90;99.90;;;;;;5070017;28;20575;-70
2024/02/10 05:26:42;;;;;;;21.73;9.25;;;9.00;99.90;;;;;;5070085;28;20028;-69
2024/02/10 05:29:10;;;;;;;32.47;15.20;;;9.00;99.90;;;;;;5069991;28;20119;-69
2024/02/10 05:31:36;;;;;;;31.23;13.23;;;9.00;99.90;;;;;;5070116;28;20020;-69
2024/02/10 05:34:06;;;;;;;15.55;6.30;;;8.90;99.90;;;;;;5070102;28;20052;-70
2024/02/10 05:36:35;;;;;;;12.32;5.80;;;9.20;99.90;;;;;;5069996;28;20021;-69
2024/02/10 05:39:10;;;;;;;12.60;5.47;;;9.30;99.90;;;;;;5069906;28;20029;-69
2024/02/10 05:41:38;;;;;;;14.50;7.13;;;9.30;99.90;;;;;;5069940;28;20413;-69
2024/02/10 05:44:03;;;;;;;14.43;5.07;;;9.30;99.90;;;;;;5070072;28;20048;-69
2024/02/10 05:46:29;;;;;;;;;;;9.30;99.90;;;;;;5052274;28;20485;-68
2024/02/10 05:48:55;;;;;;;14.70;4.82;;;9.40;99.90;;;;;;5069706;28;20057;-69
2024/02/10 05:51:24;;;;;;;17.35;5.53;;;9.40;99.90;;;;;;5051801;28;20025;-69
2024/02/10 05:53:52;;;;;;;13.00;4.68;;;9.50;99.90;;;;;;5069794;28;20413;-70
2024/02/10 05:56:18;;;;;;;14.85;5.63;;;9.40;99.90;;;;;;5069787;28;20085;-69
2024/02/10 05:58:44;;;;;;;;;;;9.40;99.90;;;;;;5070748;28;20099;-69
2024/02/10 06:01:10;;;;;;;13.88;5.40;;;9.40;99.90;;;;;;5070429;28;19916;-69
2024/02/10 06:03:36;;;;;;;15.15;6.38;;;9.40;99.90;;;;;;5069856;28;20020;-69
2024/02/10 06:06:05;;;;;;;9.10;3.97;;;9.40;99.90;;;;;;5070167;28;20071;-69
2024/02/10 06:08:31;;;;;;;7.13;3.88;;;9.40;99.90;;;;;;5069524;28;20793;-69
2024/02/10 06:10:58;;;;;;;11.65;4.03;;;9.40;99.90;;;;;;5071845;28;20508;-74
2024/02/10 06:13:27;;;;;;;9.77;3.65;;;9.40;99.90;;;;;;5072677;28;20334;-69
2024/02/10 06:15:54;;;;;;;7.82;3.83;;;9.50;99.90;;;;;;5069399;28;20032;-69
2024/02/10 06:18:27;;;;;;;9.15;4.07;;;9.40;99.90;;;;;;5069309;28;20028;-69
2024/02/10 06:20:53;;;;;;;16.17;5.22;;;9.40;99.90;;;;;;5069315;28;20048;-69
2024/02/10 06:23:24;;;;;;;13.70;5.32;;;9.30;99.90;;;;;;5069032;28;20048;-70
2024/02/10 06:25:51;;;;;;;19.95;5.20;;;9.30;99.90;;;;;;5051121;28;20040;-69
2024/02/10 06:28:19;;;;;;;12.05;5.18;;;9.20;99.90;;;;;;5050934;28;20113;-69
2024/02/10 06:30:46;;;;;;;13.93;4.78;;;9.20;99.90;;;;;;5069006;28;20021;-68
2024/02/10 06:33:12;;;;;;;12.85;4.93;;;9.10;99.90;;;;;;5050926;28;20029;-67
2024/02/10 06:35:37;;;;;;;;;;;9.10;99.90;;;;;;5069507;28;20039;-70
2024/02/10 06:38:03;;;;;;;18.45;6.32;;;9.10;99.90;;;;;;5068862;28;19954;-68
2024/02/10 06:40:29;;;;;;;;;;;9.10;99.90;;;;;;5069334;28;20056;-69
2024/02/10 06:42:54;;;;;;;13.02;5.32;;;9.20;99.90;;;;;;5068935;28;19991;-69
2024/02/10 06:45:26;;;;;;;;;;;9.30;99.90;;;;;;5051284;28;20508;-69
2024/02/10 06:47:52;;;;;;;16.50;7.57;;;9.40;99.90;;;;;;5068842;28;19912;-69
2024/02/10 06:50:24;;;;;;;;;;;9.60;99.90;;;;;;5069235;28;20396;-69
2024/02/10 06:52:50;;;;;;;8.63;3.83;;;9.80;99.90;;;;;;5068653;28;19904;-69
2024/02/10 06:55:19;;;;;;;13.20;4.38;;;10.30;99.90;;;;;;5068675;28;20028;-70
2024/02/10 06:57:47;;;;;;;11.25;3.75;;;10.50;99.90;;;;;;5068692;28;20025;-69
2024/02/10 07:00:14;;;;;;;11.93;3.72;;;10.80;99.90;;;;;;5050629;28;20024;-69
2024/02/10 07:02:42;;;;;;;11.68;3.40;;;11.10;99.90;;;;;;5068571;28;20438;-69
2024/02/10 07:05:26;;;;;;;14.65;5.13;;;11.10;99.90;;;;;;5068560;28;20108;-69
2024/02/10 07:07:53;;;;;;;10.88;3.83;;;11.20;99.90;;;;;;5068249;28;20033;-69
2024/02/10 07:10:20;;;;;;;11.70;4.05;;;11.10;99.90;;;;;;5068412;28;20054;-69
2024/02/10 07:12:48;;;;;;;10.88;3.20;;;11.20;99.90;;;;;;5068502;28;20025;-69
2024/02/10 07:15:18;;;;;;;8.63;3.05;;;11.40;99.90;;;;;;5068391;28;20025;-69
2024/02/10 07:17:49;;;;;;;6.78;2.95;;;11.80;99.90;;;;;;5050298;28;20459;-69
2024/02/10 07:20:20;;;;;;;8.55;3.25;;;12.40;99.90;;;;;;5068340;28;20035;-68
2024/02/10 07:22:49;;;;;;;8.18;2.45;;;13.00;99.90;;;;;;5068110;28;20076;-68
2024/02/10 07:25:24;;;;;;;13.70;3.40;;;13.40;99.90;;;;;;5050345;28;20032;-68
2024/02/10 07:27:50;;;;;;;16.67;6.13;;;13.80;99.90;;;;;;5068217;28;20447;-67
2024/02/10 07:30:20;;;;;;;12.88;3.90;;;14.20;99.90;;;;;;5068112;28;20540;-67
2024/02/10 07:32:47;;;;;;;7.05;3.00;;;14.40;99.90;;;;;;5061741;28;20386;-69
2024/02/10 07:35:13;;;;;;;11.32;3.50;;;14.50;99.90;;;;;;5050115;28;20020;-70
2024/02/10 07:37:39;;;;;;;9.80;3.45;;;14.60;99.90;;;;;;5068238;28;20796;-69
2024/02/10 07:40:10;;;;;;;13.00;3.95;;;14.70;99.90;;;;;;5068210;28;20575;-70
2024/02/10 07:42:37;;;;;;;7.90;3.05;;;14.90;99.90;;;;;;5068121;28;20029;-68
2024/02/10 07:45:03;;;;;;;10.70;3.22;;;15.00;98.80;;;;;;5053338;28;20107;-70
2024/02/10 07:47:28;;;;;;;10.95;3.47;;;15.20;97.70;;;;;;5071966;28;20037;-69
2024/02/10 07:49:54;;;;;;;8.23;2.70;;;15.40;95.30;;;;;;5072107;28;20040;-70
2024/02/10 07:52:21;;;;;;;16.38;2.88;;;15.80;95.60;;;;;;5071930;28;20050;-70
2024/02/10 07:54:51;;;;;;;15.23;4.90;;;16.20;94.40;;;;;;5071957;28;20074;-70
2024/02/10 07:57:20;;;;;;;5.90;2.33;;;16.50;92.80;;;;;;5071830;28;20029;-68
2024/02/10 07:59:50;;;;;;;14.27;3.72;;;16.80;90.50;;;;;;5053888;28;20355;-69
2024/02/10 08:02:25;;;;;;;11.50;2.78;;;16.90;89.90;;;;;;5071860;28;20509;-68
2024/02/10 08:04:54;;;;;;;14.82;4.13;;;16.90;88.50;;;;;;5066304;28;20028;-70
2024/02/10 08:07:21;;;;;;;9.52;2.75;;;16.70;85.10;;;;;;5071742;28;20087;-70
2024/02/10 08:09:54;;;;;;;14.73;3.72;;;16.50;84.80;;;;;;5053825;28;20029;-70
2024/02/10 08:12:25;;;;;;;9.32;3.10;;;16.40;86.70;;;;;;5071823;28;20028;-70
2024/02/10 08:14:53;;;;;;;12.85;3.00;;;16.50;85.40;;;;;;5071724;28;20031;-70
2024/02/10 08:17:33;;;;;;;9.32;2.85;;;16.50;83.60;;;;;;5054715;28;20056;-69
2024/02/10 08:19:59;;;;;;;8.20;2.83;;;16.50;84.60;;;;;;5053544;28;20039;-70
2024/02/10 08:22:34;;;;;;;14.00;2.92;;;16.70;85.30;;;;;;5071124;28;20033;-70
2024/02/10 08:25:07;;;;;;;11.85;3.45;;;16.70;84.50;;;;;;5071378;28;20024;-70
2024/02/10 08:27:36;;;;;;;8.10;2.92;;;16.70;85.70;;;;;;5071422;28;20035;-70
2024/02/10 08:30:15;;;;;;;11.43;3.40;;;16.40;85.10;;;;;;5056597;28;20039;-70
2024/02/10 08:32:44;;;;;;;13.88;5.50;;;16.20;86.40;;;;;;5071393;28;20020;-70
2024/02/10 08:35:11;;;;;;;11.05;3.47;;;16.10;87.80;;;;;;5071329;28;20063;-70
2024/02/10 08:37:39;;;;;;;16.52;5.10;;;16.00;86.50;;;;;;5053253;28;20032;-70
2024/02/10 08:40:09;;;;;;;14.98;4.32;;;15.80;88.60;;;;;;5053585;28;20040;-70
2024/02/10 08:42:35;;;;;;;12.45;4.25;;;15.60;88.50;;;;;;5053063;28;20090;-70
2024/02/10 08:45:01;;;;;;;16.88;5.18;;;15.50;87.30;;;;;;5053100;28;20032;-69
2024/02/10 08:47:28;;;;;;;12.68;3.63;;;15.50;87.60;;;;;;5052856;28;20037;-70
2024/02/10 08:49:54;;;;;;;10.20;3.50;;;15.60;88.80;;;;;;5070898;28;20070;-69
2024/02/10 08:52:20;;;;;;;12.07;4.30;;;15.80;89.20;;;;;;5070799;28;20028;-70
2024/02/10 08:54:46;;;;;;;10.32;3.65;;;16.10;88.60;;;;;;5070918;28;20024;-68
2024/02/10 08:57:15;;;;;;;9.63;3.97;;;16.40;85.40;;;;;;5052751;28;20039;-68
2024/02/10 08:59:43;;;;;;;9.75;3.42;;;16.60;84.10;;;;;;5070823;28;20024;-67
2024/02/10 09:02:09;;;;;;;12.98;4.35;;;16.80;84.30;;;;;;5052753;28;20082;-68
2024/02/10 09:04:38;;;;;;;9.52;4.00;;;17.00;82.80;;;;;;5070918;28;20036;-68
2024/02/10 09:07:04;;;;;;;20.45;9.50;;;17.30;82.40;;;;;;5070603;28;20047;-66
2024/02/10 09:09:30;;;;;;;25.35;10.10;;;17.70;83.40;;;;;;5070813;28;20528;-68
2024/02/10 09:11:56;;;;;;;12.85;5.55;;;18.10;81.80;;;;;;5052598;28;20031;-68
2024/02/10 09:14:22;;;;;;;14.32;3.78;;;18.50;78.50;;;;;;5070565;28;20017;-70
2024/02/10 09:16:48;;;;;;;13.43;4.90;;;18.80;74.80;;;;;;5070393;28;20029;-70
2024/02/10 09:19:17;;;;;;;9.70;4.00;;;18.90;74.90;;;;;;5052469;28;20024;-71
2024/02/10 09:21:44;;;;;;;13.02;3.17;;;19.20;73.90;;;;;;5070454;28;20032;-70
2024/02/10 09:24:13;;;;;;;10.07;3.92;;;19.20;73.00;;;;;;5070170;28;20127;-70
2024/02/10 09:26:43;;;;;;;10.40;3.15;;;19.30;72.00;;;;;;5070110;28;20079;-70
2024/02/10 09:29:08;;;;;;;12.48;5.68;;;19.40;70.50;;;;;;5070268;28;20344;-69
2024/02/10 09:31:34;;;;;;;13.55;3.58;;;19.50;70.20;;;;;;5070157;28;20546;-70
2024/02/10 09:34:01;;;;;;;13.30;4.63;;;19.50;70.30;;;;;;5070134;28;20054;-70
2024/02/10 09:36:28;;;;;;;10.90;3.60;;;19.60;70.20;;;;;;5052166;28;20498;-70
2024/02/10 09:38:54;;;;;;;11.75;4.78;;;19.80;69.10;;;;;;5052211;28;20504;-69
2024/02/10 09:41:20;;;;;;;18.80;6.55;;;19.90;69.00;;;;;;5069884;28;20025;-71
2024/02/10 09:43:48;;;;;;;10.90;5.07;;;19.90;69.50;;;;;;5070005;28;20020;-70
2024/02/10 09:46:14;;;;;;;10.77;3.58;;;20.00;68.30;;;;;;5051886;28;20127;-70
2024/02/10 09:48:47;;;;;;;12.65;3.10;;;20.20;67.90;;;;;;5069489;28;20044;-69
2024/02/10 09:51:13;;;;;;;14.00;3.63;;;20.30;67.80;;;;;;5069854;28;20027;-70
2024/02/10 09:53:42;;;;;;;20.15;4.60;;;20.60;67.10;;;;;;5069674;28;20116;-67
2024/02/10 09:56:13;;;;;;;10.65;3.80;;;20.60;66.60;;;;;;5069691;28;20035;-69
2024/02/10 09:58:46;;;;;;;12.23;3.67;;;20.70;66.80;;;;;;5069604;28;20479;-70
2024/02/10 10:01:13;;;;;;;14.20;3.80;;;20.50;65.80;;;;;;5069601;28;20377;-70
2024/02/10 10:03:39;;;;;;;9.88;3.42;;;20.50;64.70;;;;;;5051509;28;20127;-69
2024/02/10 10:06:10;;;;;;;16.25;3.53;;;20.00;65.00;;;;;;5051062;28;20038;-66
2024/02/10 10:08:39;;;;;;;9.23;2.40;;;19.70;66.50;;;;;;5051331;28;20405;-67
2024/02/10 10:11:06;;;;;;;9.80;2.53;;;19.40;65.30;;;;;;5069400;28;20094;-68
2024/02/10 10:13:34;;;;;;;8.52;2.22;;;19.20;66.70;;;;;;5069300;28;20020;-67
2024/02/10 10:16:02;;;;;;;13.57;2.72;;;19.00;66.80;;;;;;5051293;28;20169;-67
2024/02/10 10:18:29;;;;;;;11.57;2.42;;;18.80;67.80;;;;;;5069196;28;20097;-67
2024/02/10 10:20:55;;;;;;;13.52;2.78;;;18.70;66.70;;;;;;5069170;28;20092;-67
2024/02/10 10:23:20;;;;;;;10.68;2.50;;;18.50;68.90;;;;;;5069025;28;20816;-67
2024/02/10 10:25:46;;;;;;;7.72;2.03;;;18.70;70.70;;;;;;5051083;28;20037;-69
2024/02/10 10:28:13;;;;;;;11.07;2.00;;;18.90;67.70;;;;;;5068983;28;20040;-67
2024/02/10 10:30:43;;;;;;;10.82;1.90;;;18.90;67.30;;;;;;5069071;28;20024;-69
2024/02/10 10:33:10;;;;;;;6.05;1.70;;;19.30;63.00;;;;;;5068917;28;20035;-69
2024/02/10 10:35:44;;;;;;;9.80;1.63;;;19.40;61.30;;;;;;5068902;28;20094;-69
2024/02/10 10:38:11;;;;;;;9.15;1.60;;;19.30;62.50;;;;;;5068925;28;20033;-70
2024/02/10 10:40:38;;;;;;;12.93;1.40;;;19.10;63.50;;;;;;5068836;28;20024;-68
2024/02/10 10:43:10;;;;;;;7.22;1.60;;;19.20;62.50;;;;;;5050771;28;20021;-69
2024/02/10 10:45:37;;;;;;;6.85;1.27;;;19.10;60.70;;;;;;5050776;28;20020;-70
2024/02/10 10:48:04;;;;;;;11.05;1.75;;;18.90;63.70;;;;;;5068322;28;20405;-67
2024/02/10 10:50:31;;;;;;;4.72;1.55;;;18.80;64.40;;;;;;5068604;28;20397;-68
2024/02/10 10:53:06;;;;;;;11.13;1.40;;;18.90;63.90;;;;;;5050713;28;20028;-69
2024/02/10 10:55:35;;;;;;;6.57;1.27;;;19.00;63.50;;;;;;5068625;28;20024;-68
2024/02/10 10:58:04;;;;;;;9.25;1.63;;;18.90;63.30;;;;;;5050479;28;20056;-68
2024/02/10 11:00:34;;;;;;;16.88;1.77;;;18.90;61.90;;;;;;5068511;28;20099;-69
2024/02/10 11:03:02;;;;;;;12.02;1.25;;;18.80;62.90;;;;;;5050430;28;20443;-70
2024/02/10 11:05:32;;;;;;;11.20;1.27;;;18.50;62.00;;;;;;5068560;28;20032;-68
2024/02/10 11:08:04;;;;;;;9.32;1.50;;;18.30;62.20;;;;;;5068473;28;20033;-69
2024/02/10 11:10:41;;;;;;;5.43;1.25;;;18.10;62.40;;;;;;5068363;28;20111;-70
2024/02/10 11:13:08;;;;;;;8.43;1.52;;;17.80;63.70;;;;;;5050172;28;20116;-70
2024/02/10 11:15:40;;;;;;;7.22;1.60;;;17.80;62.70;;;;;;5069326;28;20071;-69
2024/02/10 11:18:17;;;;;;;9.07;1.13;;;17.60;64.40;;;;;;5068423;28;20109;-69
2024/02/10 11:20:43;;;;;;;12.45;3.28;;;17.50;63.90;;;;;;5072641;28;20021;-70
2024/02/10 11:23:13;;;;;;;15.02;1.83;;;17.30;65.70;;;;;;5072493;28;20077;-70
2024/02/10 11:25:40;;;;;;;8.82;1.67;;;17.30;64.80;;;;;;5072425;28;20539;-69
2024/02/10 11:28:06;;;;;;;12.00;1.40;;;17.20;64.70;;;;;;5072390;28;20036;-68
2024/02/10 11:30:34;;;;;;;11.23;1.75;;;17.10;64.40;;;;;;5072065;28;20512;-70
2024/02/10 11:33:00;;;;;;;13.55;1.17;;;17.10;64.40;;;;;;5072474;28;20058;-70
2024/02/10 11:35:25;;;;;;;8.20;1.80;;;17.10;65.70;;;;;;5072413;28;20020;-69
2024/02/10 11:37:53;;;;;;;7.70;1.33;;;17.10;64.70;;;;;;5054283;28;20102;-70
2024/02/10 11:40:19;;;;;;;9.25;1.58;;;17.10;65.40;;;;;;5054266;28;20503;-67
2024/02/10 11:42:45;;;;;;;5.68;1.38;;;17.20;64.40;;;;;;5072287;28;20056;-68
2024/02/10 11:45:11;;;;;;;5.35;1.40;;;17.30;65.00;;;;;;5072301;28;20035;-67
2024/02/10 11:47:37;;;;;;;6.28;1.25;;;17.30;64.50;;;;;;5072072;28;20020;-69
2024/02/10 11:50:04;;;;;;;7.07;0.80;;;17.40;64.80;;;;;;5072166;28;20500;-68
2024/02/10 11:52:32;;;;;;;7.93;1.55;;;17.40;64.20;;;;;;5072039;28;20479;-69
2024/02/10 11:54:57;;;;;;;8.07;2.30;;;17.60;62.20;;;;;;5071908;28;20032;-70
2024/02/10 11:57:26;;;;;;;6.82;1.52;;;17.70;62.20;;;;;;5071989;28;20480;-69
2024/02/10 11:59:53;;;;;;;12.68;1.23;;;17.80;63.20;;;;;;5071863;28;20496;-70
2024/02/10 12:02:19;;;;;;;8.77;1.55;;;17.90;62.80;;;;;;5071891;28;20025;-69
2024/02/10 12:04:47;;;;;;;8.30;1.48;;;17.90;62.20;;;;;;5071801;28;20497;-68
2024/02/10 12:07:15;;;;;;;12.48;2.75;;;17.90;62.00;;;;;;5071818;28;20074;-70
2024/02/10 12:09:41;;;;;;;17.05;1.65;;;18.00;61.70;;;;;;5053738;28;20082;-69
2024/02/10 12:12:11;;;;;;;8.65;1.60;;;18.00;60.90;;;;;;5071584;28;20025;-69
2024/02/10 12:14:37;;;;;;;7.85;2.05;;;18.00;60.10;;;;;;5071706;28;20024;-68
2024/02/10 12:17:07;;;;;;;14.15;1.58;;;17.90;60.30;;;;;;5071506;28;20028;-70
2024/02/10 12:19:40;;;;;;;6.82;1.48;;;18.00;60.10;;;;;;5071585;28;20582;-68
2024/02/10 12:22:09;;;;;;;15.90;2.08;;;18.00;60.40;;;;;;5053370;28;20031;-70
2024/02/10 12:24:40;;;;;;;12.00;1.95;;;18.00;61.30;;;;;;5071382;28;20048;-69
2024/02/10 12:27:06;;;;;;;12.73;2.72;;;17.90;61.60;;;;;;5053366;28;20024;-69
2024/02/10 12:29:32;;;;;;;11.02;2.25;;;18.10;61.00;;;;;;5052945;28;20033;-70
2024/02/10 12:31:57;;;;;;;10.95;3.58;;;18.10;60.20;;;;;;5071361;28;20452;-70
2024/02/10 12:34:23;;;;;;;10.82;2.28;;;18.10;59.20;;;;;;5071241;28;20504;-70
2024/02/10 12:36:49;;;;;;;8.98;1.38;;;18.10;59.50;;;;;;5071105;28;20032;-70
2024/02/10 12:39:15;;;;;;;13.05;2.15;;;18.10;59.80;;;;;;5070995;28;20035;-70
2024/02/10 12:41:45;;;;;;;8.18;1.10;;;18.10;59.90;;;;;;5053097;28;20070;-70
2024/02/10 12:44:11;;;;;;;10.70;1.77;;;18.00;60.40;;;;;;5071164;28;20116;-70
2024/02/10 12:46:37;;;;;;;6.78;1.70;;;18.00;60.70;;;;;;5071081;28;20032;-70
2024/02/10 12:49:04;;;;;;;17.65;2.10;;;17.80;60.90;;;;;;5070924;28;20315;-67
2024/02/10 12:51:33;;;;;;;9.60;1.67;;;17.80;60.50;;;;;;5071108;28;20031;-70
2024/02/10 12:53:59;;;;;;;8.80;2.60;;;17.80;60.50;;;;;;5070916;28;20036;-69
2024/02/10 12:56:27;;;;;;;8.35;2.50;;;17.70;60.50;;;;;;5070894;28;20523;-70
2024/02/10 12:58:54;;;;;;;7.05;1.88;;;17.60;60.00;;;;;;5052828;28;20068;-70